sensor_id;sensor_type;location;lat;lon;timestamp;pressure;altitude;pressure_sealevel;temperature;humidity
11523;BME280;40093;43.224;27.910;2022-12-11T00:01:16;99088.47;;;17.86;100.00
11523;BME280;40093;43.224;27.910;2022-12-11T00:03:43;99083.22;;;17.88;100.00
11523;BME280;40093;43.224;27.910;2022-12-11T00:06:11;99085.03;;;17.82;100.00
11523;BME280;40093;43.224;27.910;2022-12-11T00:08:40;99082.91;;;17.86;100.00
11523;BME280;40093;43.224;27.910;2022-12-11T00:11:08;99078.38;;;17.79;100.00
11523;BME280;40093;43.224;27.910;2022-12-11T00:13:36;99078.84;;;17.78;100.00
11523;BME280;40093;43.224;27.910;2022-12-11T00:16:04;99074.50;;;17.77;100.00
11523;BME280;40093;43.224;27.910;2022-12-11T00:18:31;99072.78;;;17.70;100.00
11523;BME280;40093;43.224;27.910;2022-12-11T00:20:59;99081.88;;;17.71;100.00
11523;BME280;40093;43.224;27.910;2022-12-11T00:23:26;99069.22;;;17.70;100.00
11523;BME280;40093;43.224;27.910;2022-12-11T00:25:55;99073.22;;;17.69;100.00
11523;BME280;40093;43.224;27.910;2022-12-11T00:28:22;99077.25;;;17.68;100.00
11523;BME280;40093;43.224;27.910;2022-12-11T00:30:49;99081.25;;;17.67;100.00
11523;BME280;40093;43.224;27.910;2022-12-11T00:33:16;99050.19;;;17.60;100.00
11523;BME280;40093;43.224;27.910;2022-12-11T00:35:44;99075.69;;;17.67;100.00
11523;BME280;40093;43.224;27.910;2022-12-11T00:38:14;99076.00;;;17.69;100.00
11523;BME280;40093;43.224;27.910;2022-12-11T00:40:42;99062.75;;;17.73;100.00
11523;BME280;40093;43.224;27.910;2022-12-11T00:43:10;99058.22;;;17.66;100.00
11523;BME280;40093;43.224;27.910;2022-12-11T00:45:39;99044.84;;;17.44;100.00
11523;BME280;40093;43.224;27.910;2022-12-11T00:48:07;99046.41;;;17.23;100.00
11523;BME280;40093;43.224;27.910;2022-12-11T00:50:34;99023.81;;;17.12;100.00
11523;BME280;40093;43.224;27.910;2022-12-11T00:53:01;99025.50;;;16.88;100.00
11523;BME280;40093;43.224;27.910;2022-12-11T00:55:29;99022.19;;;16.81;100.00
11523;BME280;40093;43.224;27.910;2022-12-11T00:57:57;99017.22;;;16.54;100.00
11523;BME280;40093;43.224;27.910;2022-12-11T01:00:26;99017.03;;;16.49;100.00
11523;BME280;40093;43.224;27.910;2022-12-11T01:02:53;99005.63;;;16.34;100.00
11523;BME280;40093;43.224;27.910;2022-12-11T01:05:21;98995.41;;;16.31;100.00
11523;BME280;40093;43.224;27.910;2022-12-11T01:07:50;99007.22;;;16.23;100.00
11523;BME280;40093;43.224;27.910;2022-12-11T01:10:17;99009.00;;;16.17;100.00
11523;BME280;40093;43.224;27.910;2022-12-11T01:12:50;99010.03;;;16.10;100.00
11523;BME280;40093;43.224;27.910;2022-12-11T01:15:17;99003.59;;;16.13;100.00
11523;BME280;40093;43.224;27.910;2022-12-11T01:17:46;99004.78;;;16.12;100.00
11523;BME280;40093;43.224;27.910;2022-12-11T01:20:14;98997.38;;;16.09;100.00
11523;BME280;40093;43.224;27.910;2022-12-11T01:22:42;98985.50;;;16.09;100.00
11523;BME280;40093;43.224;27.910;2022-12-11T01:25:09;98983.19;;;16.07;100.00
11523;BME280;40093;43.224;27.910;2022-12-11T01:27:37;98991.19;;;16.05;100.00
11523;BME280;40093;43.224;27.910;2022-12-11T01:30:08;98990.38;;;16.05;100.00
11523;BME280;40093;43.224;27.910;2022-12-11T01:32:35;98990.84;;;16.03;100.00
11523;BME280;40093;43.224;27.910;2022-12-11T01:35:05;98981.34;;;15.92;100.00
11523;BME280;40093;43.224;27.910;2022-12-11T01:37:33;98992.31;;;15.95;100.00
11523;BME280;40093;43.224;27.910;2022-12-11T01:40:01;98989.88;;;15.97;100.00
11523;BME280;40093;43.224;27.910;2022-12-11T01:42:28;98989.75;;;16.01;100.00
11523;BME280;40093;43.224;27.910;2022-12-11T01:45:22;98996.25;;;16.07;100.00
11523;BME280;40093;43.224;27.910;2022-12-11T01:47:53;98987.19;;;16.06;100.00
11523;BME280;40093;43.224;27.910;2022-12-11T01:50:23;98972.31;;;16.00;100.00
11523;BME280;40093;43.224;27.910;2022-12-11T01:52:51;98977.09;;;16.00;100.00
11523;BME280;40093;43.224;27.910;2022-12-11T01:55:19;98966.75;;;16.00;100.00
11523;BME280;40093;43.224;27.910;2022-12-11T01:57:48;98955.03;;;15.96;100.00
11523;BME280;40093;43.224;27.910;2022-12-11T02:00:16;98952.25;;;15.96;100.00
11523;BME280;40093;43.224;27.910;2022-12-11T02:02:44;98950.38;;;15.93;100.00
11523;BME280;40093;43.224;27.910;2022-12-11T02:05:11;98960.81;;;15.89;100.00
11523;BME280;40093;43.224;27.910;2022-12-11T02:07:42;98952.59;;;15.86;100.00
11523;BME280;40093;43.224;27.910;2022-12-11T02:10:10;98945.97;;;15.83;100.00
11523;BME280;40093;43.224;27.910;2022-12-11T02:12:42;98943.63;;;15.82;100.00
11523;BME280;40093;43.224;27.910;2022-12-11T02:15:18;98937.31;;;15.81;100.00
11523;BME280;40093;43.224;27.910;2022-12-11T02:17:49;98932.00;;;15.74;100.00
11523;BME280;40093;43.224;27.910;2022-12-11T02:20:22;98921.53;;;15.57;100.00
11523;BME280;40093;43.224;27.910;2022-12-11T02:23:21;98913.41;;;15.62;100.00
11523;BME280;40093;43.224;27.910;2022-12-11T02:25:59;98896.34;;;15.51;100.00
11523;BME280;40093;43.224;27.910;2022-12-11T02:28:34;98867.31;;;15.43;100.00
11523;BME280;40093;43.224;27.910;2022-12-11T02:31:09;98878.59;;;15.49;100.00
11523;BME280;40093;43.224;27.910;2022-12-11T02:33:43;98876.75;;;15.46;100.00
11523;BME280;40093;43.224;27.910;2022-12-11T02:36:13;98873.75;;;15.40;100.00
11523;BME280;40093;43.224;27.910;2022-12-11T02:38:46;98880.38;;;15.43;100.00
11523;BME280;40093;43.224;27.910;2022-12-11T02:41:16;98878.41;;;15.43;100.00
11523;BME280;40093;43.224;27.910;2022-12-11T02:43:47;98876.22;;;15.38;100.00
11523;BME280;40093;43.224;27.910;2022-12-11T02:46:16;98876.22;;;15.38;100.00
11523;BME280;40093;43.224;27.910;2022-12-11T02:48:46;98869.28;;;15.43;100.00
11523;BME280;40093;43.224;27.910;2022-12-11T02:51:15;98850.47;;;15.25;100.00
11523;BME280;40093;43.224;27.910;2022-12-11T02:53:44;98866.41;;;15.46;100.00
11523;BME280;40093;43.224;27.910;2022-12-11T02:56:15;98863.97;;;15.48;100.00
11523;BME280;40093;43.224;27.910;2022-12-11T02:58:47;98859.31;;;15.45;100.00
11523;BME280;40093;43.224;27.910;2022-12-11T03:01:15;98857.97;;;15.50;100.00
11523;BME280;40093;43.224;27.910;2022-12-11T03:03:42;98852.56;;;15.46;100.00
11523;BME280;40093;43.224;27.910;2022-12-11T03:06:12;98851.50;;;15.31;100.00
11523;BME280;40093;43.224;27.910;2022-12-11T03:08:42;98839.50;;;15.34;100.00
11523;BME280;40093;43.224;27.910;2022-12-11T03:11:10;98844.06;;;15.28;100.00
11523;BME280;40093;43.224;27.910;2022-12-11T03:13:37;98834.16;;;15.27;100.00
11523;BME280;40093;43.224;27.910;2022-12-11T03:16:12;98831.38;;;15.27;100.00
11523;BME280;40093;43.224;27.910;2022-12-11T03:18:46;98821.78;;;15.19;100.00
11523;BME280;40093;43.224;27.910;2022-12-11T03:21:21;98831.38;;;15.27;100.00
11523;BME280;40093;43.224;27.910;2022-12-11T03:23:53;98828.53;;;15.31;100.00
11523;BME280;40093;43.224;27.910;2022-12-11T03:26:23;98829.66;;;15.33;100.00
11523;BME280;40093;43.224;27.910;2022-12-11T03:28:55;98822.56;;;15.32;100.00
11523;BME280;40093;43.224;27.910;2022-12-11T03:31:29;98806.56;;;15.36;100.00
11523;BME280;40093;43.224;27.910;2022-12-11T03:34:01;98815.09;;;15.42;100.00
11523;BME280;40093;43.224;27.910;2022-12-11T03:36:34;98820.00;;;15.38;100.00
11523;BME280;40093;43.224;27.910;2022-12-11T03:39:05;98817.66;;;15.36;100.00
11523;BME280;40093;43.224;27.910;2022-12-11T03:41:34;98816.44;;;15.37;100.00
11523;BME280;40093;43.224;27.910;2022-12-11T03:44:03;98816.19;;;15.44;100.00
11523;BME280;40093;43.224;27.910;2022-12-11T03:46:34;98816.84;;;15.48;100.00
11523;BME280;40093;43.224;27.910;2022-12-11T03:49:06;98819.88;;;15.41;100.00
11523;BME280;40093;43.224;27.910;2022-12-11T03:51:34;98822.06;;;15.46;100.00
11523;BME280;40093;43.224;27.910;2022-12-11T03:54:02;98818.16;;;15.56;100.00
11523;BME280;40093;43.224;27.910;2022-12-11T03:56:30;98816.59;;;15.55;100.00
11523;BME280;40093;43.224;27.910;2022-12-11T03:58:58;98814.16;;;15.57;100.00
11523;BME280;40093;43.224;27.910;2022-12-11T04:01:25;98791.66;;;15.55;100.00
11523;BME280;40093;43.224;27.910;2022-12-11T04:03:53;98800.16;;;15.61;100.00
11523;BME280;40093;43.224;27.910;2022-12-11T04:06:21;98754.78;;;15.46;100.00
11523;BME280;40093;43.224;27.910;2022-12-11T04:08:48;98763.38;;;15.60;100.00
11523;BME280;40093;43.224;27.910;2022-12-11T04:11:15;98753.16;;;15.57;100.00
11523;BME280;40093;43.224;27.910;2022-12-11T04:14:00;98728.47;;;15.50;100.00
11523;BME280;40093;43.224;27.910;2022-12-11T04:16:45;98638.66;;;15.05;100.00
11523;BME280;40093;43.224;27.910;2022-12-11T04:19:13;98715.25;;;15.54;100.00
11523;BME280;40093;43.224;27.910;2022-12-11T04:21:58;98711.69;;;15.54;100.00
11523;BME280;40093;43.224;27.910;2022-12-11T04:24:42;98718.03;;;15.54;100.00
11523;BME280;40093;43.224;27.910;2022-12-11T04:27:10;98699.53;;;15.51;100.00
11523;BME280;40093;43.224;27.910;2022-12-11T04:29:37;98717.91;;;15.58;100.00
11523;BME280;40093;43.224;27.910;2022-12-11T04:32:04;98722.09;;;15.62;100.00
11523;BME280;40093;43.224;27.910;2022-12-11T04:34:32;98716.25;;;15.69;100.00
11523;BME280;40093;43.224;27.910;2022-12-11T04:37:00;98700.91;;;15.77;100.00
11523;BME280;40093;43.224;27.910;2022-12-11T04:39:26;98693.25;;;15.81;100.00
11523;BME280;40093;43.224;27.910;2022-12-11T04:41:54;98697.47;;;15.95;100.00
11523;BME280;40093;43.224;27.910;2022-12-11T04:44:21;98692.72;;;15.95;100.00
11523;BME280;40093;43.224;27.910;2022-12-11T04:46:48;98706.94;;;16.06;100.00
11523;BME280;40093;43.224;27.910;2022-12-11T04:49:15;98678.75;;;16.08;100.00
11523;BME280;40093;43.224;27.910;2022-12-11T04:51:43;98688.16;;;16.10;100.00
11523;BME280;40093;43.224;27.910;2022-12-11T04:54:10;98672.63;;;16.22;100.00
11523;BME280;40093;43.224;27.910;2022-12-11T04:56:37;98677.25;;;16.25;100.00
11523;BME280;40093;43.224;27.910;2022-12-11T04:59:04;98682.66;;;16.28;100.00
11523;BME280;40093;43.224;27.910;2022-12-11T05:01:31;98685.38;;;16.41;100.00
11523;BME280;40093;43.224;27.910;2022-12-11T05:03:58;98661.78;;;16.45;100.00
11523;BME280;40093;43.224;27.910;2022-12-11T05:06:25;98672.94;;;16.72;100.00
11523;BME280;40093;43.224;27.910;2022-12-11T05:08:53;98661.41;;;16.83;100.00
11523;BME280;40093;43.224;27.910;2022-12-11T05:11:20;98639.94;;;17.01;100.00
11523;BME280;40093;43.224;27.910;2022-12-11T05:13:47;98583.13;;;17.02;100.00
11523;BME280;40093;43.224;27.910;2022-12-11T05:16:15;98625.44;;;17.42;100.00
11523;BME280;40093;43.224;27.910;2022-12-11T05:18:42;98639.91;;;17.55;100.00
11523;BME280;40093;43.224;27.910;2022-12-11T05:21:10;98627.25;;;17.63;100.00
11523;BME280;40093;43.224;27.910;2022-12-11T05:23:39;98650.38;;;17.69;100.00
11523;BME280;40093;43.224;27.910;2022-12-11T05:26:11;98630.25;;;17.83;100.00
11523;BME280;40093;43.224;27.910;2022-12-11T05:28:38;98657.59;;;17.84;100.00
11523;BME280;40093;43.224;27.910;2022-12-11T05:31:07;98678.78;;;17.82;100.00
11523;BME280;40093;43.224;27.910;2022-12-11T05:33:36;98674.75;;;17.83;100.00
11523;BME280;40093;43.224;27.910;2022-12-11T05:36:04;98691.63;;;17.88;100.00
11523;BME280;40093;43.224;27.910;2022-12-11T05:38:31;98690.84;;;17.88;100.00
11523;BME280;40093;43.224;27.910;2022-12-11T05:41:02;98696.69;;;17.90;100.00
11523;BME280;40093;43.224;27.910;2022-12-11T05:43:33;98696.69;;;17.90;100.00
11523;BME280;40093;43.224;27.910;2022-12-11T05:46:07;98698.88;;;17.95;100.00
11523;BME280;40093;43.224;27.910;2022-12-11T05:48:35;98705.50;;;17.97;100.00
11523;BME280;40093;43.224;27.910;2022-12-11T05:51:03;98684.59;;;18.02;100.00
11523;BME280;40093;43.224;27.910;2022-12-11T05:53:30;98690.47;;;18.04;100.00
11523;BME280;40093;43.224;27.910;2022-12-11T05:56:00;98700.03;;;18.12;100.00
11523;BME280;40093;43.224;27.910;2022-12-11T05:58:27;98697.53;;;18.14;100.00
11523;BME280;40093;43.224;27.910;2022-12-11T06:00:58;98725.75;;;18.07;100.00
11523;BME280;40093;43.224;27.910;2022-12-11T06:03:26;98721.28;;;18.00;100.00
11523;BME280;40093;43.224;27.910;2022-12-11T06:05:53;98722.94;;;18.07;100.00
11523;BME280;40093;43.224;27.910;2022-12-11T06:08:20;98728.22;;;18.05;100.00
11523;BME280;40093;43.224;27.910;2022-12-11T06:10:48;98739.66;;;18.07;100.00
11523;BME280;40093;43.224;27.910;2022-12-11T06:13:16;98738.13;;;18.06;100.00
11523;BME280;40093;43.224;27.910;2022-12-11T06:15:43;98722.00;;;18.10;100.00
11523;BME280;40093;43.224;27.910;2022-12-11T06:18:11;98720.47;;;18.09;100.00
11523;BME280;40093;43.224;27.910;2022-12-11T06:20:38;98725.13;;;18.03;100.00
11523;BME280;40093;43.224;27.910;2022-12-11T06:23:05;98684.31;;;18.00;100.00
11523;BME280;40093;43.224;27.910;2022-12-11T06:25:32;98714.25;;;18.14;100.00
11523;BME280;40093;43.224;27.910;2022-12-11T06:27:59;98689.53;;;18.16;100.00
11523;BME280;40093;43.224;27.910;2022-12-11T06:30:26;98685.63;;;18.22;100.00
11523;BME280;40093;43.224;27.910;2022-12-11T06:32:53;98703.25;;;18.28;100.00
11523;BME280;40093;43.224;27.910;2022-12-11T06:35:21;98690.72;;;18.24;100.00
11523;BME280;40093;43.224;27.910;2022-12-11T06:37:48;98705.06;;;18.40;100.00
11523;BME280;40093;43.224;27.910;2022-12-11T06:40:15;98715.06;;;18.47;100.00
11523;BME280;40093;43.224;27.910;2022-12-11T06:45:24;98721.25;;;18.51;100.00
11523;BME280;40093;43.224;27.910;2022-12-11T06:47:51;98741.66;;;18.57;100.00
11523;BME280;40093;43.224;27.910;2022-12-11T06:50:18;98723.22;;;18.59;100.00
11523;BME280;40093;43.224;27.910;2022-12-11T06:52:50;98736.41;;;18.59;100.00
11523;BME280;40093;43.224;27.910;2022-12-11T06:55:17;98716.56;;;18.57;100.00
11523;BME280;40093;43.224;27.910;2022-12-11T06:57:44;98730.50;;;18.57;100.00
11523;BME280;40093;43.224;27.910;2022-12-11T07:00:12;98737.56;;;18.67;100.00
11523;BME280;40093;43.224;27.910;2022-12-11T07:02:39;98735.41;;;18.71;100.00
11523;BME280;40093;43.224;27.910;2022-12-11T07:05:06;98734.31;;;18.68;100.00
11523;BME280;40093;43.224;27.910;2022-12-11T07:07:33;98736.94;;;18.72;100.00
11523;BME280;40093;43.224;27.910;2022-12-11T07:10:02;98737.38;;;18.79;100.00
11523;BME280;40093;43.224;27.910;2022-12-11T07:12:29;98735.03;;;18.78;100.00
11523;BME280;40093;43.224;27.910;2022-12-11T07:14:56;98725.75;;;18.81;100.00
11523;BME280;40093;43.224;27.910;2022-12-11T07:17:22;98734.75;;;18.76;100.00
11523;BME280;40093;43.224;27.910;2022-12-11T07:19:49;98733.50;;;18.77;100.00
11523;BME280;40093;43.224;27.910;2022-12-11T07:22:16;98747.44;;;18.77;100.00
11523;BME280;40093;43.224;27.910;2022-12-11T07:24:43;98748.09;;;18.72;100.00
11523;BME280;40093;43.224;27.910;2022-12-11T07:27:11;98750.59;;;18.70;100.00
11523;BME280;40093;43.224;27.910;2022-12-11T07:29:38;98756.31;;;18.66;100.00
11523;BME280;40093;43.224;27.910;2022-12-11T07:32:05;98728.75;;;18.68;100.00
11523;BME280;40093;43.224;27.910;2022-12-11T07:34:33;98710.97;;;18.66;100.00
11523;BME280;40093;43.224;27.910;2022-12-11T07:37:00;98727.09;;;18.62;100.00
11523;BME280;40093;43.224;27.910;2022-12-11T07:39:26;98724.19;;;18.56;100.00
11523;BME280;40093;43.224;27.910;2022-12-11T07:41:53;98726.50;;;18.58;100.00
11523;BME280;40093;43.224;27.910;2022-12-11T07:44:22;98723.75;;;18.49;100.00
11523;BME280;40093;43.224;27.910;2022-12-11T07:46:48;98735.81;;;18.46;100.00
11523;BME280;40093;43.224;27.910;2022-12-11T07:49:15;98730.88;;;18.50;100.00
11523;BME280;40093;43.224;27.910;2022-12-11T07:51:42;98739.09;;;18.44;100.00
11523;BME280;40093;43.224;27.910;2022-12-11T07:54:11;98749.16;;;18.42;100.00
11523;BME280;40093;43.224;27.910;2022-12-11T07:56:42;98744.66;;;18.44;100.00
11523;BME280;40093;43.224;27.910;2022-12-11T07:59:10;98730.88;;;18.50;100.00
11523;BME280;40093;43.224;27.910;2022-12-11T08:01:39;98733.94;;;18.52;100.00
11523;BME280;40093;43.224;27.910;2022-12-11T08:04:08;98739.50;;;18.52;100.00
11523;BME280;40093;43.224;27.910;2022-12-11T08:06:37;98733.00;;;18.55;100.00
11523;BME280;40093;43.224;27.910;2022-12-11T08:09:07;98738.69;;;18.60;100.00
11523;BME280;40093;43.224;27.910;2022-12-11T08:11:34;98726.78;;;18.60;100.00
11523;BME280;40093;43.224;27.910;2022-12-11T08:14:01;98736.19;;;18.62;100.00
11523;BME280;40093;43.224;27.910;2022-12-11T08:16:30;98732.66;;;18.62;100.00
11523;BME280;40093;43.224;27.910;2022-12-11T08:18:59;98740.09;;;18.56;100.00
11523;BME280;40093;43.224;27.910;2022-12-11T08:21:26;98717.81;;;18.56;100.00
11523;BME280;40093;43.224;27.910;2022-12-11T08:23:54;98734.53;;;18.56;100.00
11523;BME280;40093;43.224;27.910;2022-12-11T08:26:22;98718.03;;;18.52;100.00
11523;BME280;40093;43.224;27.910;2022-12-11T08:28:50;98714.56;;;18.57;100.00
11523;BME280;40093;43.224;27.910;2022-12-11T08:31:17;98704.50;;;18.60;100.00
11523;BME280;40093;43.224;27.910;2022-12-11T08:33:46;98692.13;;;18.61;100.00
11523;BME280;40093;43.224;27.910;2022-12-11T08:36:17;98658.88;;;18.57;100.00
11523;BME280;40093;43.224;27.910;2022-12-11T08:38:44;98633.00;;;18.57;100.00
11523;BME280;40093;43.224;27.910;2022-12-11T08:41:13;98636.13;;;18.59;100.00
11523;BME280;40093;43.224;27.910;2022-12-11T08:43:41;98623.56;;;18.63;100.00
11523;BME280;40093;43.224;27.910;2022-12-11T08:46:09;98620.94;;;18.60;100.00
11523;BME280;40093;43.224;27.910;2022-12-11T08:48:37;98645.16;;;18.68;100.00
11523;BME280;40093;43.224;27.910;2022-12-11T08:51:06;98651.75;;;18.80;100.00
11523;BME280;40093;43.224;27.910;2022-12-11T08:53:35;98649.72;;;18.80;100.00
11523;BME280;40093;43.224;27.910;2022-12-11T08:56:05;98673.97;;;18.89;100.00
11523;BME280;40093;43.224;27.910;2022-12-11T08:58:32;98673.91;;;18.98;100.00
11523;BME280;40093;43.224;27.910;2022-12-11T09:00:59;98669.06;;;19.07;100.00
11523;BME280;40093;43.224;27.910;2022-12-11T09:03:26;98684.59;;;19.23;100.00
11523;BME280;40093;43.224;27.910;2022-12-11T09:05:53;98687.91;;;19.36;100.00
11523;BME280;40093;43.224;27.910;2022-12-11T09:08:19;98685.56;;;19.34;100.00
11523;BME280;40093;43.224;27.910;2022-12-11T09:10:48;98685.88;;;19.36;100.00
11523;BME280;40093;43.224;27.910;2022-12-11T09:13:15;98669.53;;;19.29;100.00
11523;BME280;40093;43.224;27.910;2022-12-11T09:15:42;98647.59;;;19.37;100.00
11523;BME280;40093;43.224;27.910;2022-12-11T09:18:09;98649.50;;;19.31;100.00
11523;BME280;40093;43.224;27.910;2022-12-11T09:20:36;98663.75;;;19.33;100.00
11523;BME280;40093;43.224;27.910;2022-12-11T09:23:03;98674.59;;;19.31;100.00
11523;BME280;40093;43.224;27.910;2022-12-11T09:25:31;98678.28;;;19.37;100.00
11523;BME280;40093;43.224;27.910;2022-12-11T09:27:59;98682.78;;;19.34;100.00
11523;BME280;40093;43.224;27.910;2022-12-11T09:30:26;98666.16;;;19.40;100.00
11523;BME280;40093;43.224;27.910;2022-12-11T09:32:52;98663.75;;;19.33;100.00
11523;BME280;40093;43.224;27.910;2022-12-11T09:35:19;98626.81;;;19.38;100.00
11523;BME280;40093;43.224;27.910;2022-12-11T09:37:48;98640.50;;;19.36;100.00
11523;BME280;40093;43.224;27.910;2022-12-11T09:40:16;98635.47;;;19.40;100.00
11523;BME280;40093;43.224;27.910;2022-12-11T09:42:50;98636.66;;;19.48;100.00
11523;BME280;40093;43.224;27.910;2022-12-11T09:45:20;98635.41;;;19.49;100.00
11523;BME280;40093;43.224;27.910;2022-12-11T09:47:48;98626.84;;;19.52;100.00
11523;BME280;40093;43.224;27.910;2022-12-11T09:50:21;98625.19;;;19.75;100.00
11523;BME280;40093;43.224;27.910;2022-12-11T09:52:57;98624.88;;;20.02;100.00
11523;BME280;40093;43.224;27.910;2022-12-11T09:55:36;98605.53;;;20.13;100.00
11523;BME280;40093;43.224;27.910;2022-12-11T09:58:15;98618.44;;;20.10;100.00
11523;BME280;40093;43.224;27.910;2022-12-11T10:00:48;98631.66;;;20.10;100.00
11523;BME280;40093;43.224;27.910;2022-12-11T10:06:26;98626.06;;;20.44;100.00
11523;BME280;40093;43.224;27.910;2022-12-11T10:09:02;98629.09;;;20.60;100.00
11523;BME280;40093;43.224;27.910;2022-12-11T10:11:46;98627.00;;;20.75;100.00
11523;BME280;40093;43.224;27.910;2022-12-11T10:14:23;98643.53;;;20.93;100.00
11523;BME280;40093;43.224;27.910;2022-12-11T10:16:56;98629.53;;;21.13;100.00
11523;BME280;40093;43.224;27.910;2022-12-11T10:19:28;98643.91;;;21.26;100.00
11523;BME280;40093;43.224;27.910;2022-12-11T10:21:56;98636.13;;;21.36;100.00
11523;BME280;40093;43.224;27.910;2022-12-11T10:24:28;98630.47;;;21.30;100.00
11523;BME280;40093;43.224;27.910;2022-12-11T10:27:12;98628.09;;;21.23;100.00
11523;BME280;40093;43.224;27.910;2022-12-11T10:29:39;98626.28;;;21.20;100.00
11523;BME280;40093;43.224;27.910;2022-12-11T10:32:15;98611.63;;;21.05;100.00
11523;BME280;40093;43.224;27.910;2022-12-11T10:34:48;98606.84;;;21.11;100.00
11523;BME280;40093;43.224;27.910;2022-12-11T10:37:19;98612.44;;;21.11;100.00
11523;BME280;40093;43.224;27.910;2022-12-11T10:39:46;98595.00;;;20.96;100.00
11523;BME280;40093;43.224;27.910;2022-12-11T10:42:17;98596.19;;;20.70;100.00
11523;BME280;40093;43.224;27.910;2022-12-11T10:44:55;98603.00;;;20.49;100.00
11523;BME280;40093;43.224;27.910;2022-12-11T10:47:23;98600.81;;;20.38;100.00
11523;BME280;40093;43.224;27.910;2022-12-11T10:49:53;98598.47;;;20.32;100.00
11523;BME280;40093;43.224;27.910;2022-12-11T10:52:23;98597.88;;;20.27;100.00
11523;BME280;40093;43.224;27.910;2022-12-11T10:54:58;98607.34;;;20.16;100.00
11523;BME280;40093;43.224;27.910;2022-12-11T10:57:27;98620.47;;;20.10;100.00
11523;BME280;40093;43.224;27.910;2022-12-11T10:59:55;98618.22;;;19.99;100.00
11523;BME280;40093;43.224;27.910;2022-12-11T11:02:26;98634.22;;;19.99;100.00
11523;BME280;40093;43.224;27.910;2022-12-11T11:04:54;98641.63;;;20.02;100.00
11523;BME280;40093;43.224;27.910;2022-12-11T11:07:24;98627.22;;;20.18;100.00
11523;BME280;40093;43.224;27.910;2022-12-11T11:10:04;98618.75;;;20.32;100.00
11523;BME280;40093;43.224;27.910;2022-12-11T11:12:37;98627.88;;;20.47;100.00
11523;BME280;40093;43.224;27.910;2022-12-11T11:15:09;98629.50;;;20.53;100.00
11523;BME280;40093;43.224;27.910;2022-12-11T11:17:43;98631.81;;;20.55;100.00
11523;BME280;40093;43.224;27.910;2022-12-11T11:20:14;98635.00;;;20.48;100.00
11523;BME280;40093;43.224;27.910;2022-12-11T11:22:44;98638.66;;;20.20;100.00
11523;BME280;40093;43.224;27.910;2022-12-11T11:25:16;98638.75;;;19.96;100.00
11523;BME280;40093;43.224;27.910;2022-12-11T11:27:47;98642.81;;;19.81;100.00
11523;BME280;40093;43.224;27.910;2022-12-11T11:30:18;98629.72;;;19.58;100.00
11523;BME280;40093;43.224;27.910;2022-12-11T11:32:49;98637.97;;;19.38;100.00
11523;BME280;40093;43.224;27.910;2022-12-11T11:35:19;98639.88;;;19.32;100.00
11523;BME280;40093;43.224;27.910;2022-12-11T11:37:53;98645.97;;;19.30;100.00
11523;BME280;40093;43.224;27.910;2022-12-11T11:40:27;98658.59;;;19.17;100.00
11523;BME280;40093;43.224;27.910;2022-12-11T11:43:03;98642.91;;;19.05;100.00
11523;BME280;40093;43.224;27.910;2022-12-11T11:45:36;98639.31;;;18.90;100.00
11523;BME280;40093;43.224;27.910;2022-12-11T11:48:23;98638.59;;;18.80;100.00
11523;BME280;40093;43.224;27.910;2022-12-11T11:50:53;98631.06;;;18.72;100.00
11523;BME280;40093;43.224;27.910;2022-12-11T11:53:25;98630.16;;;18.66;100.00
11523;BME280;40093;43.224;27.910;2022-12-11T11:56:00;98629.88;;;18.64;100.00
11523;BME280;40093;43.224;27.910;2022-12-11T11:58:37;98636.41;;;18.61;100.00
11523;BME280;40093;43.224;27.910;2022-12-11T12:01:12;98630.06;;;18.60;100.00
11523;BME280;40093;43.224;27.910;2022-12-11T12:03:41;98625.03;;;18.50;100.00
11523;BME280;40093;43.224;27.910;2022-12-11T12:06:13;98623.38;;;18.43;100.00
11523;BME280;40093;43.224;27.910;2022-12-11T12:08:50;98616.13;;;18.37;100.00
11523;BME280;40093;43.224;27.910;2022-12-11T12:11:26;98608.72;;;18.34;100.00
11523;BME280;40093;43.224;27.910;2022-12-11T12:14:04;98602.84;;;18.32;100.00
11523;BME280;40093;43.224;27.910;2022-12-11T12:16:39;98603.13;;;18.34;100.00
11523;BME280;40093;43.224;27.910;2022-12-11T12:19:15;98606.03;;;18.39;100.00
11523;BME280;40093;43.224;27.910;2022-12-11T12:21:49;98619.50;;;18.41;100.00
11523;BME280;40093;43.224;27.910;2022-12-11T12:24:25;98623.81;;;18.42;100.00
11523;BME280;40093;43.224;27.910;2022-12-11T12:26:58;98609.84;;;18.51;100.00
11523;BME280;40093;43.224;27.910;2022-12-11T12:29:42;98605.47;;;18.59;100.00
11523;BME280;40093;43.224;27.910;2022-12-11T12:32:14;98583.41;;;18.70;100.00
11523;BME280;40093;43.224;27.910;2022-12-11T12:35:02;98589.78;;;18.85;100.00
11523;BME280;40093;43.224;27.910;2022-12-11T12:37:49;98598.47;;;19.01;100.00
11523;BME280;40093;43.224;27.910;2022-12-11T12:40:28;98594.81;;;19.10;100.00
11523;BME280;40093;43.224;27.910;2022-12-11T12:43:10;98604.50;;;19.23;100.00
11523;BME280;40093;43.224;27.910;2022-12-11T12:45:51;98594.50;;;19.31;100.00
11523;BME280;40093;43.224;27.910;2022-12-11T12:48:23;98592.78;;;19.34;100.00
11523;BME280;40093;43.224;27.910;2022-12-11T12:50:52;98590.09;;;19.25;100.00
11523;BME280;40093;43.224;27.910;2022-12-11T12:53:25;98593.34;;;19.23;100.00
11523;BME280;40093;43.224;27.910;2022-12-11T12:55:54;98589.69;;;19.32;100.00
11523;BME280;40093;43.224;27.910;2022-12-11T12:58:24;98597.69;;;19.39;100.00
11523;BME280;40093;43.224;27.910;2022-12-11T13:00:52;98610.66;;;19.42;100.00